Home > Products > Valid Products > TAF

000
FTUS44 KBRO 140520
TAFHRL
TAF
KHRL 140520Z 1406/1506 15008KT P6SM FEW250
     FM141600 16021G29KT P6SM SCT040 SCT250
     FM150200 15011G16KT P6SM SCT250=



000
FTUS44 KBRO 140520
TAFMFE
TAF
KMFE 140520Z 1406/1506 14010KT P6SM FEW250
     FM141700 15021G28KT P6SM SCT040 SCT250=



000
FTUS44 KBRO 140520
TAFBRO
TAF
KBRO 140520Z 1406/1506 15007KT P6SM SCT250
     FM141600 16021G28KT P6SM SCT040 SCT250
     FM150300 15011G16KT P6SM SCT250=



000
FTUS44 KBRO 132334
TAFBRO
TAF
KBRO 132334Z 1400/1424 12015G20KT P6SM FEW040 SCT250
     FM140300 15007KT P6SM FEW250
     FM141600 16019G28KT P6SM SCT025 SCT250=



000
FTUS44 KBRO 132334
TAFMFE
TAF
KMFE 132334Z 1400/1424 15012G18KT P6SM SKC
     FM140300 14008KT P6SM FEW250
     FM141700 15019G27KT P6SM SCT025 SCT250=



000
FTUS44 KBRO 132334
TAFBRO
TAF
KBRO 132334Z 1400/1424 12015G20KT P6SM FEW040 SCT250
     FM140300 15007KT P6SM FEW250
     FM141600 16019G28KT P6SM SCT025 SCT250=



000
FTUS44 KBRO 132334
TAFHRL
TAF
KHRL 132334Z 1400/1424 14013G20KT P6SM BKN040
     FM140300 15008KT P6SM FEW250
     FM141600 16019G28KT P6SM SCT025 SCT250=



000
FTUS44 KBRO 132334
TAFMFE
TAF
KMFE 132334Z 1400/1424 15012G18KT P6SM SKC
     FM140300 14008KT P6SM FEW250
     FM141700 15019G27KT P6SM SCT025 SCT250=



000
FTUS44 KBRO 132334
TAFHRL
TAF
KHRL 132334Z 1400/1424 14013G20KT P6SM BKN040
     FM140300 15008KT P6SM FEW250
     FM141600 16019G28KT P6SM SCT025 SCT250=



000
FTUS44 KBRO 131722
TAFHRL
TAF
KHRL 131722Z 1318/1418 14013G20KT P6SM BKN040
     FM140300 15008KT P6SM SKC=



000
FTUS44 KBRO 131722
TAFBRO
TAF
KBRO 131722Z 1318/1418 16015G20KT P6SM FEW040 FEW250
     FM140300 15007KT P6SM FEW250=



000
FTUS44 KBRO 131722
TAFMFE
TAF
KMFE 131722Z 1318/1418 15010KT P6SM SKC
     FM131900 15012G18KT P6SM SKC
     FM140300 14008KT P6SM FEW250=



000
FTUS44 KBRO 131619 AAA
TAFMFE
TAF AMD
KMFE 131619Z 1316/1412 13006KT 3SM BR OVC002
     FM131800 13012G18KT P6SM SKC
     FM140300 14011KT P6SM SCT250
     FM140600 15008KT P6SM SKC=



000
FTUS44 KBRO 131309 AAC
TAFHRL
TAF AMD
KHRL 131309Z 1313/1412 09005KT 3SM BR SKC
     FM131500 16008KT P6SM FEW250
     FM131800 14013G19KT P6SM BKN250
     FM140300 15009KT P6SM SKC
     FM140600 16008KT P6SM SKC=



000
FTUS44 KBRO 131308 AAC
TAFBRO
TAF AMD
KBRO 131308Z 1313/1412 09005KT P6SM FEW250
     FM131800 13011KT P6SM SKC
     FM140300 14007KT P6SM SKC
     FM140600 16007KT P6SM FEW250=



000
FTUS44 KBRO 131308 AAC
TAFBRO
TAF AMD
KBRO 131308Z 1313/1412 09005KT P6SM FEW250
     FM131800 13011KT P6SM SKC
     FM140300 14007KT P6SM SKC
     FM140600 16007KT P6SM FEW250=



000
FTUS44 KBRO 131250 AAB
TAFHRL
TAF AMD
KHRL 131250Z 1313/1412 09005KT 1/2SM FG SKC
     FM131500 16008KT P6SM FEW250
     FM131800 14013G19KT P6SM BKN250
     FM140300 15009KT P6SM SKC
     FM140600 16008KT P6SM SKC=



000
FTUS44 KBRO 131250 AAB
TAFHRL
TAF AMD
KHRL 131250Z 1313/1412 09005KT 1/2SM FG SKC
     FM131500 16008KT P6SM FEW250
     FM131800 14013G19KT P6SM BKN250
     FM140300 15009KT P6SM SKC
     FM140600 16008KT P6SM SKC=



000
FTUS44 KBRO 131207 AAA
TAFHRL
TAF AMD
KHRL 131207Z 1312/1412 14004KT 1/4SM FG SKC
     FM131500 16008KT P6SM FEW250
     FM131800 14013G19KT P6SM BKN250
     FM140300 15009KT P6SM SKC
     FM140600 16008KT P6SM SKC=



000
FTUS44 KBRO 131207 AAA
TAFHRL
TAF AMD
KHRL 131207Z 1312/1412 14004KT 1/4SM FG SKC
     FM131500 16008KT P6SM FEW250
     FM131800 14013G19KT P6SM BKN250
     FM140300 15009KT P6SM SKC
     FM140600 16008KT P6SM SKC=



000
FTUS44 KBRO 131146 AAA
TAFBRO
TAF AMD
KBRO 131146Z 1312/1412 00000KT 1 1/2SM BR SKC
     FM131400 15005KT P6SM FEW250
     FM131800 13011KT P6SM SKC
     FM140300 14007KT P6SM SKC
     FM140600 16007KT P6SM FEW250=



000
FTUS44 KBRO 131146 AAA
TAFBRO
TAF AMD
KBRO 131146Z 1312/1412 00000KT 1 1/2SM BR SKC
     FM131400 15005KT P6SM FEW250
     FM131800 13011KT P6SM SKC
     FM140300 14007KT P6SM SKC
     FM140600 16007KT P6SM FEW250=



000
FTUS44 KBRO 131120
TAFBRO
TAF
KBRO 131120Z 1312/1412 13004KT P6SM SKC
     FM131400 15005KT P6SM FEW250
     FM131800 13011KT P6SM SKC
     FM140300 14007KT P6SM SKC
     FM140600 16007KT P6SM FEW250=



000
FTUS44 KBRO 131120
TAFHRL
TAF
KHRL 131120Z 1312/1412 15003KT 1/2SM FG SKC
     FM131500 16008KT P6SM FEW250
     FM131800 14013G19KT P6SM BKN250
     FM140300 15009KT P6SM SKC
     FM140600 16008KT P6SM SKC=



000
FTUS44 KBRO 131120
TAFMFE
TAF
KMFE 131120Z 1312/1412 13003KT 1/4SM FG VV002
     FM131600 13007KT P6SM FEW250
     FM131800 13012G18KT P6SM SKC
     FM140300 14011KT P6SM SCT250
     FM140600 15008KT P6SM SKC=



000
FTUS44 KBRO 131120
TAFBRO
TAF
KBRO 131120Z 1312/1412 13004KT P6SM SKC
     FM131400 15005KT P6SM FEW250
     FM131800 13011KT P6SM SKC
     FM140300 14007KT P6SM SKC
     FM140600 16007KT P6SM FEW250=



000
FTUS44 KBRO 131120
TAFHRL
TAF
KHRL 131120Z 1312/1412 15003KT 1/2SM FG SKC
     FM131500 16008KT P6SM FEW250
     FM131800 14013G19KT P6SM BKN250
     FM140300 15009KT P6SM SKC
     FM140600 16008KT P6SM SKC=



000
FTUS44 KBRO 131120
TAFMFE
TAF
KMFE 131120Z 1312/1412 13003KT 1/4SM FG VV002
     FM131600 13007KT P6SM FEW250
     FM131800 13012G18KT P6SM SKC
     FM140300 14011KT P6SM SCT250
     FM140600 15008KT P6SM SKC=



000
FTUS44 KBRO 131116 AAB
TAFHRL
TAF AMD
KHRL 131116Z 1311/1406 15003KT 1/2SM FG SKC
     FM131500 15004KT P6SM FEW250
     FM131800 14012KT P6SM BKN250
     FM140300 12005KT P6SM SKC=



000
FTUS44 KBRO 131116 AAB
TAFHRL
TAF AMD
KHRL 131116Z 1311/1406 15003KT 1/2SM FG SKC
     FM131500 15004KT P6SM FEW250
     FM131800 14012KT P6SM BKN250
     FM140300 12005KT P6SM SKC=



000
FTUS44 KBRO 131115 AAE
TAFBRO
TAF AMD
KBRO 131115Z 1311/1406 13004KT P6SM SKC
     FM131200 00000KT 1/4SM FG FEW250
     FM131400 14009G18KT P6SM FEW250
     FM131800 14011KT P6SM SKC
     FM140300 13006KT P6SM SKC=



000
FTUS44 KBRO 131115 AAE
TAFBRO
TAF AMD
KBRO 131115Z 1311/1406 13004KT P6SM SKC
     FM131200 00000KT 1/4SM FG FEW250
     FM131400 14009G18KT P6SM FEW250
     FM131800 14011KT P6SM SKC
     FM140300 13006KT P6SM SKC=



000
FTUS44 KBRO 130930 AAD
TAFBRO
TAF AMD
KBRO 130930Z 1310/1406 17005KT 1 1/2SM BR FEW030
     FM131200 00000KT 1/4SM FG FEW250
     FM131400 14009G18KT P6SM FEW250
     FM131800 14011KT P6SM SKC
     FM140300 13006KT P6SM SKC=



000
FTUS44 KBRO 130920 AAC
TAFBRO
TAF AMD
KBRO 130920Z 1309/1406 12004KT P6SM BKN030
     FM131200 00000KT 1/4SM FG FEW250
     FM131400 14009G18KT P6SM FEW250
     FM131800 14011KT P6SM SKC
     FM140300 13006KT P6SM SKC=



000
FTUS44 KBRO 130920 AAC
TAFBRO
TAF AMD
KBRO 130920Z 1309/1406 12004KT P6SM BKN030
     FM131200 00000KT 1/4SM FG FEW250
     FM131400 14009G18KT P6SM FEW250
     FM131800 14011KT P6SM SKC
     FM140300 13006KT P6SM SKC=



000
FTUS44 KBRO 130920 AAB
TAFMFE
TAF AMD
KMFE 130920Z 1309/1406 17003KT 1/4SM FG VV003
     FM131500 14006KT P6SM FEW250
     FM131800 14013KT P6SM SKC
     FM140300 13008KT P6SM SCT250=



000
FTUS44 KBRO 130920 AAB
TAFMFE
TAF AMD
KMFE 130920Z 1309/1406 17003KT 1/4SM FG VV003
     FM131500 14006KT P6SM FEW250
     FM131800 14013KT P6SM SKC
     FM140300 13008KT P6SM SCT250=



000
FTUS44 KBRO 130855 AAA
TAFHRL
TAF AMD
KHRL 130855Z 1309/1406 15008KT P6SM SKC
     FM131200 00000KT 1/2SM FG FEW250
     FM131500 15004KT P6SM FEW250
     FM131800 14012KT P6SM BKN250
     FM140300 12005KT P6SM SKC=



000
FTUS44 KBRO 130855 AAA
TAFHRL
TAF AMD
KHRL 130855Z 1309/1406 15008KT P6SM SKC
     FM131200 00000KT 1/2SM FG FEW250
     FM131500 15004KT P6SM FEW250
     FM131800 14012KT P6SM BKN250
     FM140300 12005KT P6SM SKC=



000
FTUS44 KBRO 130854 AAA
TAFMFE
TAF AMD
KMFE 130854Z 1309/1406 16004KT 5SM BR FEW003
     FM131200 14004KT 4SM BR SCT250
     FM131500 14006KT P6SM FEW250
     FM131800 14013KT P6SM SKC
     FM140300 13009KT P6SM SKC=



000
FTUS44 KBRO 130854 AAA
TAFMFE
TAF AMD
KMFE 130854Z 1309/1406 16004KT 5SM BR FEW003
     FM131200 14004KT 4SM BR SCT250
     FM131500 14006KT P6SM FEW250
     FM131800 14013KT P6SM SKC
     FM140300 13009KT P6SM SKC=



000
FTUS44 KBRO 130641 AAA
TAFBRO
TAF AMD
KBRO 130641Z 1307/1406 12004KT P6SM SKC
     FM131200 00000KT 1/4SM FG FEW250
     FM131400 14009G18KT P6SM FEW250
     FM131800 14011KT P6SM SKC
     FM140300 13006KT P6SM SKC=



000
FTUS44 KBRO 130641 AAA
TAFBRO
TAF AMD
KBRO 130641Z 1307/1406 12004KT P6SM SKC
     FM131200 00000KT 1/4SM FG FEW250
     FM131400 14009G18KT P6SM FEW250
     FM131800 14011KT P6SM SKC
     FM140300 13006KT P6SM SKC=



000
FTUS44 KBRO 130520
TAFBRO
TAF
KBRO 130520Z 1306/1406 00000KT 1SM BR SKC
     FM131200 00000KT 1/4SM FG FEW250
     FM131400 14009G18KT P6SM FEW250
     FM131800 14011KT P6SM SKC
     FM140300 13006KT P6SM SKC=



000
FTUS44 KBRO 130520
TAFMFE
TAF
KMFE 130520Z 1306/1406 13005KT P6SM SKC
     FM131200 14004KT 4SM BR SCT250
     FM131500 14006KT P6SM FEW250
     FM131800 14013KT P6SM SKC
     FM140300 13009KT P6SM SKC=



000
FTUS44 KBRO 130520
TAFHRL
TAF
KHRL 130520Z 1306/1406 14007KT P6SM SKC
     FM130900 10002KT 5SM BR SKC
     FM131200 00000KT 1/2SM FG FEW250
     FM131500 15004KT P6SM FEW250
     FM131800 14012KT P6SM BKN250
     FM140300 12005KT P6SM SKC=



000
FTUS44 KBRO 122322
TAFBRO
TAF
KBRO 122322Z 1300/1324 16013G19KT P6SM FEW050
     FM130200 VRB03KT P6SM FEW250
      TEMPO 1310/1313 4SM BR=



000
FTUS44 KBRO 122322
TAFHRL
TAF
KHRL 122322Z 1300/1324 18013G19KT P6SM FEW050
     FM130200 VRB04KT P6SM FEW250
      TEMPO 1310/1313 4SM BR=



000
FTUS44 KBRO 122322
TAFMFE
TAF
KMFE 122322Z 1300/1324 15009KT P6SM SKC
     FM131600 13012G18KT P6SM FEW250=



000
FTUS44 KBRO 121720
TAFMFE
TAF
KMFE 121720Z 1218/1318 15009KT P6SM SKC=



000
FTUS44 KBRO 121720
TAFHRL
TAF
KHRL 121720Z 1218/1318 18013G19KT P6SM FEW050
     FM130200 15007KT P6SM FEW250
     FM130600 17005KT 5SM BR FEW250
     FM131000 15005KT 1SM BR VV007
     FM131400 16005KT 6SM BR SCT006=



000
FTUS44 KBRO 121720
TAFBRO
TAF
KBRO 121720Z 1218/1318 16013G19KT P6SM FEW050
     FM130200 14005KT P6SM FEW250
     FM130600 VRB03KT 5SM BR FEW250
     FM131000 15003KT 1SM BR VV006
     FM131500 16005KT 6SM BR SCT006=



000
FTUS44 KBRO 121720
TAFMFE
TAF
KMFE 121720Z 1218/1318 15009KT P6SM SKC=



000
FTUS44 KBRO 121720
TAFBRO
TAF
KBRO 121720Z 1218/1318 16013G19KT P6SM FEW050
     FM130200 14005KT P6SM FEW250
     FM130600 VRB03KT 5SM BR FEW250
     FM131000 15003KT 1SM BR VV006
     FM131500 16005KT 6SM BR SCT006=



000
FTUS44 KBRO 121720
TAFHRL
TAF
KHRL 121720Z 1218/1318 18013G19KT P6SM FEW050
     FM130200 15007KT P6SM FEW250
     FM130600 17005KT 5SM BR FEW250
     FM131000 15005KT 1SM BR VV007
     FM131400 16005KT 6SM BR SCT006=



000
FTUS44 KBRO 121413 AAB
TAFBRO
TAF AMD
KBRO 121413Z 1214/1312 16004KT 3SM BR SCT006
     FM121500 17013G19KT P6SM SCT050
     FM130200 14005KT P6SM FEW250
     FM130600 VRB03KT P6SM FEW250=



000
FTUS44 KBRO 121254 AAA
TAFBRO
TAF AMD
KBRO 121254Z 1213/1312 15004KT 3/4SM BR VV008
     FM121500 17013G19KT P6SM SCT050
     FM130200 14005KT P6SM FEW250
     FM130600 VRB03KT P6SM FEW250=



000
FTUS44 KBRO 121121
TAFHRL
TAF
KHRL 121121Z 1212/1312 18006KT P6SM SKC
     FM121500 18013G19KT P6SM SCT050
     FM130200 15007KT P6SM FEW250
     FM130600 17005KT P6SM SKC=



000
FTUS44 KBRO 121121
TAFBRO
TAF
KBRO 121121Z 1212/1312 17004KT 4SM BR SKC
     FM121500 17013G19KT P6SM SCT050
     FM130200 14005KT P6SM FEW250
     FM130600 VRB03KT P6SM FEW250=



000
FTUS44 KBRO 121121
TAFMFE
TAF
KMFE 121121Z 1212/1312 15008KT P6SM SKC
     FM121500 15010KT P6SM SCT050
     FM130200 14009KT P6SM SKC
     FM130600 15006KT P6SM SKC=



000
FTUS44 KBRO 121121
TAFMFE
TAF
KMFE 121121Z 1212/1312 15008KT P6SM SKC
     FM121500 15010KT P6SM SCT050
     FM130200 14009KT P6SM SKC
     FM130600 15006KT P6SM SKC=



000
FTUS44 KBRO 121121
TAFBRO
TAF
KBRO 121121Z 1212/1312 17004KT 4SM BR SKC
     FM121500 17013G19KT P6SM SCT050
     FM130200 14005KT P6SM FEW250
     FM130600 VRB03KT P6SM FEW250=



000
FTUS44 KBRO 121121
TAFHRL
TAF
KHRL 121121Z 1212/1312 18006KT P6SM SKC
     FM121500 18013G19KT P6SM SCT050
     FM130200 15007KT P6SM FEW250
     FM130600 17005KT P6SM SKC=



000
FTUS44 KBRO 121108 AAA
TAFBRO
TAF AMD
KBRO 121108Z 1211/1306 17004KT 4SM BR SKC
     FM121500 15015G18KT P6SM SCT050
     FM130200 15006KT P6SM FEW250=



000
FTUS44 KBRO 121108 AAA
TAFBRO
TAF AMD
KBRO 121108Z 1211/1306 17004KT 4SM BR SKC
     FM121500 15015G18KT P6SM SCT050
     FM130200 15006KT P6SM FEW250=



000
FTUS44 KBRO 120520
TAFHRL
TAF
KHRL 120520Z 1206/1306 16009KT P6SM SKC
     FM121500 16015G20KT P6SM SCT050
     FM130200 15007KT P6SM FEW250=



000
FTUS44 KBRO 120520
TAFBRO
TAF
KBRO 120520Z 1206/1306 17007KT P6SM SKC
     FM121500 15015G18KT P6SM SCT050
     FM130200 15006KT P6SM FEW250=



000
FTUS44 KBRO 120520
TAFMFE
TAF
KMFE 120520Z 1206/1306 15010KT P6SM SKC
     FM121500 16012KT P6SM SCT050
     FM130200 14007KT P6SM SKC=



000
FTUS44 KBRO 120520
TAFBRO
TAF
KBRO 120520Z 1206/1306 17007KT P6SM SKC
     FM121500 15015G18KT P6SM SCT050
     FM130200 15006KT P6SM FEW250=



000
FTUS44 KBRO 120520
TAFHRL
TAF
KHRL 120520Z 1206/1306 16009KT P6SM SKC
     FM121500 16015G20KT P6SM SCT050
     FM130200 15007KT P6SM FEW250=



000
FTUS44 KBRO 120520
TAFMFE
TAF
KMFE 120520Z 1206/1306 15010KT P6SM SKC
     FM121500 16012KT P6SM SCT050
     FM130200 14007KT P6SM SKC=



000
FTUS44 KBRO 112339
TAFBRO
TAF
KBRO 112339Z 1200/1224 16017KT P6SM SKC
     FM120200 16009KT P6SM SKC
     FM121600 15015G18KT P6SM SCT050=



000
FTUS44 KBRO 112339
TAFHRL
TAF
KHRL 112339Z 1200/1224 15017KT P6SM SKC
     FM120200 16010KT P6SM SKC
     FM121500 16015G20KT P6SM SCT050=



000
FTUS44 KBRO 112339
TAFMFE
TAF
KMFE 112339Z 1200/1224 13017KT P6SM SKC
     FM120200 16009KT P6SM SKC
     FM121500 16012KT P6SM SCT050=



000
FTUS44 KBRO 112339
TAFBRO
TAF
KBRO 112339Z 1200/1224 16017KT P6SM SKC
     FM120200 16009KT P6SM SKC
     FM121600 15015G18KT P6SM SCT050=



000
FTUS44 KBRO 112339
TAFHRL
TAF
KHRL 112339Z 1200/1224 15017KT P6SM SKC
     FM120200 16010KT P6SM SKC
     FM121500 16015G20KT P6SM SCT050=



000
FTUS44 KBRO 112339
TAFMFE
TAF
KMFE 112339Z 1200/1224 13017KT P6SM SKC
     FM120200 16009KT P6SM SKC
     FM121500 16012KT P6SM SCT050=



000
FTUS44 KBRO 111723
TAFHRL
TAF
KHRL 111723Z 1118/1218 17016G28KT P6SM SKC
     FM120100 16010KT P6SM SKC
     FM121500 16015G20KT P6SM SCT050=



000
FTUS44 KBRO 111723
TAFBRO
TAF
KBRO 111723Z 1118/1218 17018G28KT P6SM SKC
     FM120100 16009KT P6SM SKC
     FM121600 15015G18KT P6SM SCT050=



000
FTUS44 KBRO 111723
TAFMFE
TAF
KMFE 111723Z 1118/1218 17015G24KT P6SM SKC
     FM120300 16010KT P6SM SKC=



000
FTUS44 KBRO 111723
TAFBRO
TAF
KBRO 111723Z 1118/1218 17018G28KT P6SM SKC
     FM120100 16009KT P6SM SKC
     FM121600 15015G18KT P6SM SCT050=



000
FTUS44 KBRO 111723
TAFHRL
TAF
KHRL 111723Z 1118/1218 17016G28KT P6SM SKC
     FM120100 16010KT P6SM SKC
     FM121500 16015G20KT P6SM SCT050=



000
FTUS44 KBRO 111723
TAFMFE
TAF
KMFE 111723Z 1118/1218 17015G24KT P6SM SKC
     FM120300 16010KT P6SM SKC=



000
FTUS44 KBRO 111122
TAFMFE
TAF
KMFE 111122Z 1112/1212 15008KT P6SM SKC
     FM111500 17014KT P6SM SKC
     FM111800 17015G24KT P6SM SKC
     FM120300 16010KT P6SM SKC=



000
FTUS44 KBRO 111122
TAFBRO
TAF
KBRO 111122Z 1112/1212 16008KT P6SM SKC
     FM111500 18015KT P6SM SKC
     FM111800 17016G25KT P6SM SKC
     FM120100 16009KT P6SM SKC=



000
FTUS44 KBRO 111122
TAFHRL
TAF
KHRL 111122Z 1112/1212 16008KT P6SM SKC
     FM111500 18015KT P6SM SKC
     FM111800 17016G25KT P6SM SKC
     FM120100 16008KT P6SM SKC=



    US Dept of Commerce
    National Oceanic and Atmospheric Administration
    National Weather Service
    1325 East West Highway
    Silver Spring, MD 20910
    Page Author: NWS Internet Services Team
Disclaimer
Information Quality
Credits
Glossary
Privacy Policy
Freedom of Information Act (FOIA)
About Us
Career Opportunities